sensor_id;sensor_type;location;lat;lon;timestamp;P1;durP1;ratioP1;P2;durP2;ratioP2
44139;SDS011;29803;51.048;4.686;2023-11-18T00:01:57;64.72;;;29.05;;
44139;SDS011;29803;51.048;4.686;2023-11-18T00:04:29;50.55;;;24.98;;
44139;SDS011;29803;51.048;4.686;2023-11-18T00:07:00;52.85;;;26.08;;
44139;SDS011;29803;51.048;4.686;2023-11-18T00:09:31;54.97;;;23.30;;
44139;SDS011;29803;51.048;4.686;2023-11-18T00:12:01;57.97;;;26.58;;
44139;SDS011;29803;51.048;4.686;2023-11-18T00:14:34;50.28;;;23.98;;
44139;SDS011;29803;51.048;4.686;2023-11-18T00:17:04;55.03;;;25.60;;
44139;SDS011;29803;51.048;4.686;2023-11-18T00:19:35;56.20;;;26.67;;
44139;SDS011;29803;51.048;4.686;2023-11-18T00:22:06;70.80;;;27.55;;
44139;SDS011;29803;51.048;4.686;2023-11-18T00:24:37;57.20;;;26.33;;
44139;SDS011;29803;51.048;4.686;2023-11-18T00:27:08;56.75;;;28.60;;
44139;SDS011;29803;51.048;4.686;2023-11-18T00:29:38;60.20;;;28.05;;
44139;SDS011;29803;51.048;4.686;2023-11-18T00:32:09;63.97;;;28.25;;
44139;SDS011;29803;51.048;4.686;2023-11-18T00:34:39;61.88;;;28.17;;
44139;SDS011;29803;51.048;4.686;2023-11-18T00:37:10;62.28;;;29.20;;
44139;SDS011;29803;51.048;4.686;2023-11-18T00:39:40;66.72;;;29.20;;
44139;SDS011;29803;51.048;4.686;2023-11-18T00:42:11;60.22;;;28.10;;
44139;SDS011;29803;51.048;4.686;2023-11-18T00:44:42;59.50;;;29.05;;
44139;SDS011;29803;51.048;4.686;2023-11-18T00:47:12;64.28;;;27.58;;
44139;SDS011;29803;51.048;4.686;2023-11-18T00:49:42;62.67;;;26.85;;
44139;SDS011;29803;51.048;4.686;2023-11-18T00:52:13;63.17;;;27.67;;
44139;SDS011;29803;51.048;4.686;2023-11-18T00:54:43;59.00;;;27.77;;
44139;SDS011;29803;51.048;4.686;2023-11-18T00:57:14;66.05;;;27.65;;
44139;SDS011;29803;51.048;4.686;2023-11-18T00:59:44;62.28;;;27.45;;
44139;SDS011;29803;51.048;4.686;2023-11-18T01:02:15;63.85;;;29.00;;
44139;SDS011;29803;51.048;4.686;2023-11-18T01:04:46;64.28;;;28.42;;
44139;SDS011;29803;51.048;4.686;2023-11-18T01:07:17;60.33;;;27.27;;
44139;SDS011;29803;51.048;4.686;2023-11-18T01:09:47;64.88;;;27.85;;
44139;SDS011;29803;51.048;4.686;2023-11-18T01:12:19;59.50;;;26.02;;
44139;SDS011;29803;51.048;4.686;2023-11-18T01:14:50;56.85;;;28.65;;
44139;SDS011;29803;51.048;4.686;2023-11-18T01:17:20;61.75;;;27.00;;
44139;SDS011;29803;51.048;4.686;2023-11-18T01:19:52;63.67;;;27.40;;
44139;SDS011;29803;51.048;4.686;2023-11-18T01:22:23;53.88;;;26.20;;
44139;SDS011;29803;51.048;4.686;2023-11-18T01:24:54;54.63;;;26.13;;
44139;SDS011;29803;51.048;4.686;2023-11-18T01:27:24;56.35;;;24.67;;
44139;SDS011;29803;51.048;4.686;2023-11-18T01:29:55;63.33;;;26.77;;
44139;SDS011;29803;51.048;4.686;2023-11-18T01:32:25;54.45;;;25.45;;
44139;SDS011;29803;51.048;4.686;2023-11-18T01:34:56;57.85;;;25.67;;
44139;SDS011;29803;51.048;4.686;2023-11-18T01:37:27;59.13;;;26.83;;
44139;SDS011;29803;51.048;4.686;2023-11-18T01:39:57;52.22;;;24.65;;
44139;SDS011;29803;51.048;4.686;2023-11-18T01:42:28;58.78;;;25.67;;
44139;SDS011;29803;51.048;4.686;2023-11-18T01:44:58;57.15;;;26.48;;
44139;SDS011;29803;51.048;4.686;2023-11-18T01:47:31;51.97;;;23.95;;
44139;SDS011;29803;51.048;4.686;2023-11-18T01:50:03;68.40;;;25.75;;
44139;SDS011;29803;51.048;4.686;2023-11-18T01:52:36;62.67;;;25.63;;
44139;SDS011;29803;51.048;4.686;2023-11-18T01:55:08;59.17;;;25.65;;
44139;SDS011;29803;51.048;4.686;2023-11-18T01:57:38;47.42;;;23.55;;
44139;SDS011;29803;51.048;4.686;2023-11-18T02:00:13;52.20;;;24.02;;
44139;SDS011;29803;51.048;4.686;2023-11-18T02:02:47;54.85;;;25.23;;
44139;SDS011;29803;51.048;4.686;2023-11-18T02:05:18;51.08;;;24.02;;
44139;SDS011;29803;51.048;4.686;2023-11-18T02:07:48;56.67;;;25.48;;
44139;SDS011;29803;51.048;4.686;2023-11-18T02:10:19;57.58;;;24.58;;
44139;SDS011;29803;51.048;4.686;2023-11-18T02:12:52;49.92;;;24.38;;
44139;SDS011;29803;51.048;4.686;2023-11-18T02:15:28;52.78;;;24.02;;
44139;SDS011;29803;51.048;4.686;2023-11-18T02:18:02;58.03;;;24.20;;
44139;SDS011;29803;51.048;4.686;2023-11-18T02:20:36;53.13;;;23.35;;
44139;SDS011;29803;51.048;4.686;2023-11-18T02:23:09;56.72;;;25.25;;
44139;SDS011;29803;51.048;4.686;2023-11-18T02:25:42;52.40;;;24.20;;
44139;SDS011;29803;51.048;4.686;2023-11-18T02:28:25;52.58;;;25.30;;
44139;SDS011;29803;51.048;4.686;2023-11-18T02:31:09;55.15;;;25.92;;
44139;SDS011;29803;51.048;4.686;2023-11-18T02:33:49;47.47;;;24.08;;
44139;SDS011;29803;51.048;4.686;2023-11-18T02:39:08;51.20;;;23.42;;
44139;SDS011;29803;51.048;4.686;2023-11-18T02:41:48;56.53;;;25.40;;
44139;SDS011;29803;51.048;4.686;2023-11-18T02:44:22;53.60;;;22.90;;
44139;SDS011;29803;51.048;4.686;2023-11-18T02:46:55;45.92;;;21.88;;
44139;SDS011;29803;51.048;4.686;2023-11-18T02:49:26;45.45;;;21.80;;
44139;SDS011;29803;51.048;4.686;2023-11-18T02:51:57;43.97;;;22.42;;
44139;SDS011;29803;51.048;4.686;2023-11-18T02:54:29;44.78;;;23.45;;
44139;SDS011;29803;51.048;4.686;2023-11-18T02:56:59;52.60;;;22.95;;
44139;SDS011;29803;51.048;4.686;2023-11-18T02:59:30;58.92;;;26.25;;
44139;SDS011;29803;51.048;4.686;2023-11-18T03:02:01;52.63;;;24.05;;
44139;SDS011;29803;51.048;4.686;2023-11-18T03:04:32;54.22;;;24.58;;
44139;SDS011;29803;51.048;4.686;2023-11-18T03:07:04;57.72;;;23.77;;
44139;SDS011;29803;51.048;4.686;2023-11-18T03:09:39;55.55;;;23.88;;
44139;SDS011;29803;51.048;4.686;2023-11-18T03:12:10;67.82;;;25.70;;
44139;SDS011;29803;51.048;4.686;2023-11-18T03:14:49;53.47;;;25.08;;
44139;SDS011;29803;51.048;4.686;2023-11-18T03:17:20;56.72;;;26.55;;
44139;SDS011;29803;51.048;4.686;2023-11-18T03:19:51;55.92;;;26.35;;
44139;SDS011;29803;51.048;4.686;2023-11-18T03:22:21;59.58;;;27.00;;
44139;SDS011;29803;51.048;4.686;2023-11-18T03:24:53;61.58;;;25.48;;
44139;SDS011;29803;51.048;4.686;2023-11-18T03:27:24;58.75;;;24.95;;
44139;SDS011;29803;51.048;4.686;2023-11-18T03:29:54;58.72;;;23.55;;
44139;SDS011;29803;51.048;4.686;2023-11-18T03:32:25;59.35;;;24.60;;
44139;SDS011;29803;51.048;4.686;2023-11-18T03:34:58;56.03;;;24.90;;
44139;SDS011;29803;51.048;4.686;2023-11-18T03:37:30;50.17;;;24.10;;
44139;SDS011;29803;51.048;4.686;2023-11-18T03:40:01;57.03;;;24.85;;
44139;SDS011;29803;51.048;4.686;2023-11-18T03:42:32;57.50;;;25.40;;
44139;SDS011;29803;51.048;4.686;2023-11-18T03:45:02;59.25;;;23.83;;
44139;SDS011;29803;51.048;4.686;2023-11-18T03:47:34;54.50;;;23.20;;
44139;SDS011;29803;51.048;4.686;2023-11-18T03:50:05;54.50;;;23.70;;
44139;SDS011;29803;51.048;4.686;2023-11-18T03:52:38;51.80;;;22.42;;
44139;SDS011;29803;51.048;4.686;2023-11-18T03:55:09;48.28;;;21.58;;
44139;SDS011;29803;51.048;4.686;2023-11-18T03:57:39;54.42;;;23.35;;
44139;SDS011;29803;51.048;4.686;2023-11-18T04:00:10;53.83;;;21.60;;
44139;SDS011;29803;51.048;4.686;2023-11-18T04:02:41;48.53;;;20.50;;
44139;SDS011;29803;51.048;4.686;2023-11-18T04:05:12;47.33;;;20.02;;
44139;SDS011;29803;51.048;4.686;2023-11-18T04:07:43;47.08;;;19.67;;
44139;SDS011;29803;51.048;4.686;2023-11-18T04:10:13;49.33;;;19.10;;
44139;SDS011;29803;51.048;4.686;2023-11-18T04:12:45;48.70;;;19.13;;
44139;SDS011;29803;51.048;4.686;2023-11-18T04:15:18;45.10;;;17.85;;
44139;SDS011;29803;51.048;4.686;2023-11-18T04:17:48;39.63;;;18.55;;
44139;SDS011;29803;51.048;4.686;2023-11-18T04:20:19;41.60;;;17.48;;
44139;SDS011;29803;51.048;4.686;2023-11-18T04:22:49;36.50;;;15.80;;
44139;SDS011;29803;51.048;4.686;2023-11-18T04:25:20;44.72;;;15.60;;
44139;SDS011;29803;51.048;4.686;2023-11-18T04:27:51;36.97;;;14.52;;
44139;SDS011;29803;51.048;4.686;2023-11-18T04:30:21;45.95;;;14.63;;
44139;SDS011;29803;51.048;4.686;2023-11-18T04:32:52;37.95;;;15.35;;
44139;SDS011;29803;51.048;4.686;2023-11-18T04:35:22;39.97;;;14.50;;
44139;SDS011;29803;51.048;4.686;2023-11-18T04:37:54;31.52;;;13.85;;
44139;SDS011;29803;51.048;4.686;2023-11-18T04:40:25;28.73;;;13.70;;
44139;SDS011;29803;51.048;4.686;2023-11-18T04:42:55;35.35;;;12.45;;
44139;SDS011;29803;51.048;4.686;2023-11-18T04:45:26;33.50;;;13.05;;
44139;SDS011;29803;51.048;4.686;2023-11-18T04:47:56;27.38;;;11.07;;
44139;SDS011;29803;51.048;4.686;2023-11-18T04:50:27;35.72;;;11.70;;
44139;SDS011;29803;51.048;4.686;2023-11-18T04:52:58;30.33;;;11.85;;
44139;SDS011;29803;51.048;4.686;2023-11-18T04:55:29;32.55;;;11.15;;
44139;SDS011;29803;51.048;4.686;2023-11-18T04:58:00;36.80;;;11.73;;
44139;SDS011;29803;51.048;4.686;2023-11-18T05:00:30;31.27;;;10.35;;
44139;SDS011;29803;51.048;4.686;2023-11-18T05:03:02;25.75;;;10.85;;
44139;SDS011;29803;51.048;4.686;2023-11-18T05:05:33;22.77;;;10.07;;
44139;SDS011;29803;51.048;4.686;2023-11-18T05:08:04;23.23;;;9.23;;
44139;SDS011;29803;51.048;4.686;2023-11-18T05:10:37;28.10;;;10.05;;
44139;SDS011;29803;51.048;4.686;2023-11-18T05:13:08;24.67;;;9.27;;
44139;SDS011;29803;51.048;4.686;2023-11-18T05:15:38;21.80;;;8.65;;
44139;SDS011;29803;51.048;4.686;2023-11-18T05:18:09;29.98;;;8.55;;
44139;SDS011;29803;51.048;4.686;2023-11-18T05:20:42;28.15;;;8.85;;
44139;SDS011;29803;51.048;4.686;2023-11-18T05:23:13;21.05;;;8.80;;
44139;SDS011;29803;51.048;4.686;2023-11-18T05:25:43;20.88;;;7.68;;
44139;SDS011;29803;51.048;4.686;2023-11-18T05:28:15;22.25;;;7.88;;
44139;SDS011;29803;51.048;4.686;2023-11-18T05:30:46;22.77;;;6.93;;
44139;SDS011;29803;51.048;4.686;2023-11-18T05:33:17;27.80;;;7.13;;
44139;SDS011;29803;51.048;4.686;2023-11-18T05:35:48;28.77;;;8.18;;
44139;SDS011;29803;51.048;4.686;2023-11-18T05:38:19;17.55;;;6.20;;
44139;SDS011;29803;51.048;4.686;2023-11-18T05:40:52;20.15;;;7.20;;
44139;SDS011;29803;51.048;4.686;2023-11-18T05:43:31;19.40;;;7.10;;
44139;SDS011;29803;51.048;4.686;2023-11-18T05:46:10;24.13;;;6.72;;
44139;SDS011;29803;51.048;4.686;2023-11-18T05:48:47;22.98;;;7.13;;
44139;SDS011;29803;51.048;4.686;2023-11-18T05:51:19;18.48;;;6.55;;
44139;SDS011;29803;51.048;4.686;2023-11-18T05:53:52;17.35;;;5.70;;
44139;SDS011;29803;51.048;4.686;2023-11-18T05:56:23;20.17;;;8.07;;
44139;SDS011;29803;51.048;4.686;2023-11-18T05:58:54;16.75;;;6.00;;
44139;SDS011;29803;51.048;4.686;2023-11-18T06:01:24;17.50;;;5.85;;
44139;SDS011;29803;51.048;4.686;2023-11-18T06:03:57;24.92;;;5.93;;
44139;SDS011;29803;51.048;4.686;2023-11-18T06:06:27;20.40;;;5.78;;
44139;SDS011;29803;51.048;4.686;2023-11-18T06:08:58;20.88;;;5.60;;
44139;SDS011;29803;51.048;4.686;2023-11-18T06:11:35;12.20;;;5.03;;
44139;SDS011;29803;51.048;4.686;2023-11-18T06:14:05;17.35;;;5.03;;
44139;SDS011;29803;51.048;4.686;2023-11-18T06:16:38;22.55;;;5.13;;
44139;SDS011;29803;51.048;4.686;2023-11-18T06:19:10;18.95;;;5.13;;
44139;SDS011;29803;51.048;4.686;2023-11-18T06:21:40;18.42;;;5.03;;
44139;SDS011;29803;51.048;4.686;2023-11-18T06:24:11;13.80;;;5.32;;
44139;SDS011;29803;51.048;4.686;2023-11-18T06:26:44;21.80;;;4.93;;
44139;SDS011;29803;51.048;4.686;2023-11-18T06:29:15;12.70;;;4.40;;
44139;SDS011;29803;51.048;4.686;2023-11-18T06:31:46;16.77;;;5.43;;
44139;SDS011;29803;51.048;4.686;2023-11-18T06:34:17;14.57;;;4.63;;
44139;SDS011;29803;51.048;4.686;2023-11-18T06:36:48;19.08;;;4.82;;
44139;SDS011;29803;51.048;4.686;2023-11-18T06:39:18;27.55;;;5.35;;
44139;SDS011;29803;51.048;4.686;2023-11-18T06:41:56;13.25;;;4.53;;
44139;SDS011;29803;51.048;4.686;2023-11-18T06:44:28;20.40;;;4.35;;
44139;SDS011;29803;51.048;4.686;2023-11-18T06:46:59;15.75;;;4.00;;
44139;SDS011;29803;51.048;4.686;2023-11-18T06:49:32;13.43;;;4.28;;
44139;SDS011;29803;51.048;4.686;2023-11-18T06:52:04;13.82;;;3.88;;
44139;SDS011;29803;51.048;4.686;2023-11-18T06:54:35;10.70;;;3.30;;
44139;SDS011;29803;51.048;4.686;2023-11-18T06:57:05;12.75;;;3.30;;
44139;SDS011;29803;51.048;4.686;2023-11-18T06:59:37;17.70;;;3.67;;
44139;SDS011;29803;51.048;4.686;2023-11-18T07:02:08;13.13;;;3.72;;
44139;SDS011;29803;51.048;4.686;2023-11-18T07:04:40;11.13;;;2.90;;
44139;SDS011;29803;51.048;4.686;2023-11-18T07:07:10;13.63;;;3.72;;
44139;SDS011;29803;51.048;4.686;2023-11-18T07:09:42;9.18;;;3.17;;
44139;SDS011;29803;51.048;4.686;2023-11-18T07:12:14;13.05;;;3.90;;
44139;SDS011;29803;51.048;4.686;2023-11-18T07:14:47;13.77;;;3.03;;
44139;SDS011;29803;51.048;4.686;2023-11-18T07:17:18;11.80;;;3.83;;
44139;SDS011;29803;51.048;4.686;2023-11-18T07:19:49;12.43;;;3.55;;
44139;SDS011;29803;51.048;4.686;2023-11-18T07:22:19;11.15;;;3.65;;
44139;SDS011;29803;51.048;4.686;2023-11-18T07:24:50;12.73;;;3.70;;
44139;SDS011;29803;51.048;4.686;2023-11-18T07:27:20;11.25;;;3.30;;
44139;SDS011;29803;51.048;4.686;2023-11-18T07:29:51;8.45;;;3.28;;
44139;SDS011;29803;51.048;4.686;2023-11-18T07:32:23;9.00;;;3.03;;
44139;SDS011;29803;51.048;4.686;2023-11-18T07:34:55;26.02;;;3.22;;
44139;SDS011;29803;51.048;4.686;2023-11-18T07:37:25;12.90;;;4.72;;
44139;SDS011;29803;51.048;4.686;2023-11-18T07:39:57;13.95;;;3.33;;
44139;SDS011;29803;51.048;4.686;2023-11-18T07:42:31;14.32;;;3.05;;
44139;SDS011;29803;51.048;4.686;2023-11-18T07:45:06;12.60;;;3.95;;
44139;SDS011;29803;51.048;4.686;2023-11-18T07:47:47;18.75;;;3.47;;
44139;SDS011;29803;51.048;4.686;2023-11-18T07:50:18;12.32;;;3.00;;
44139;SDS011;29803;51.048;4.686;2023-11-18T07:52:50;18.52;;;3.20;;
44139;SDS011;29803;51.048;4.686;2023-11-18T07:55:21;10.38;;;3.15;;
44139;SDS011;29803;51.048;4.686;2023-11-18T07:57:53;13.70;;;3.03;;
44139;SDS011;29803;51.048;4.686;2023-11-18T08:00:24;8.60;;;2.97;;
44139;SDS011;29803;51.048;4.686;2023-11-18T08:02:54;14.07;;;3.28;;
44139;SDS011;29803;51.048;4.686;2023-11-18T08:05:25;12.48;;;3.35;;
44139;SDS011;29803;51.048;4.686;2023-11-18T08:07:56;11.88;;;3.85;;
44139;SDS011;29803;51.048;4.686;2023-11-18T08:10:26;12.57;;;3.50;;
44139;SDS011;29803;51.048;4.686;2023-11-18T08:12:58;13.63;;;4.22;;
44139;SDS011;29803;51.048;4.686;2023-11-18T08:15:29;16.35;;;3.55;;
44139;SDS011;29803;51.048;4.686;2023-11-18T08:18:01;12.25;;;3.97;;
44139;SDS011;29803;51.048;4.686;2023-11-18T08:20:33;16.67;;;4.00;;
44139;SDS011;29803;51.048;4.686;2023-11-18T08:23:04;16.10;;;3.70;;
44139;SDS011;29803;51.048;4.686;2023-11-18T08:25:35;15.82;;;3.40;;
44139;SDS011;29803;51.048;4.686;2023-11-18T08:28:06;14.23;;;3.95;;
44139;SDS011;29803;51.048;4.686;2023-11-18T08:30:38;13.60;;;4.13;;
44139;SDS011;29803;51.048;4.686;2023-11-18T08:33:09;12.98;;;3.97;;
44139;SDS011;29803;51.048;4.686;2023-11-18T08:35:39;13.20;;;3.70;;
44139;SDS011;29803;51.048;4.686;2023-11-18T08:38:12;15.73;;;3.97;;
44139;SDS011;29803;51.048;4.686;2023-11-18T08:40:42;18.58;;;4.57;;
44139;SDS011;29803;51.048;4.686;2023-11-18T08:43:13;17.90;;;3.70;;
44139;SDS011;29803;51.048;4.686;2023-11-18T08:45:46;18.52;;;4.05;;
44139;SDS011;29803;51.048;4.686;2023-11-18T08:48:17;11.82;;;4.35;;
44139;SDS011;29803;51.048;4.686;2023-11-18T08:50:48;17.17;;;4.30;;
44139;SDS011;29803;51.048;4.686;2023-11-18T08:53:19;21.27;;;5.47;;
44139;SDS011;29803;51.048;4.686;2023-11-18T08:55:56;14.50;;;4.63;;
44139;SDS011;29803;51.048;4.686;2023-11-18T08:58:26;16.13;;;4.43;;
44139;SDS011;29803;51.048;4.686;2023-11-18T09:00:59;12.48;;;4.82;;
44139;SDS011;29803;51.048;4.686;2023-11-18T09:03:43;14.52;;;4.07;;
44139;SDS011;29803;51.048;4.686;2023-11-18T09:08:49;13.13;;;4.70;;
44139;SDS011;29803;51.048;4.686;2023-11-18T09:11:23;10.00;;;4.18;;
44139;SDS011;29803;51.048;4.686;2023-11-18T09:13:59;14.48;;;4.07;;
44139;SDS011;29803;51.048;4.686;2023-11-18T09:16:30;15.27;;;4.75;;
44139;SDS011;29803;51.048;4.686;2023-11-18T09:19:03;17.92;;;4.78;;
44139;SDS011;29803;51.048;4.686;2023-11-18T09:21:36;12.43;;;4.88;;
44139;SDS011;29803;51.048;4.686;2023-11-18T09:24:06;15.85;;;5.13;;
44139;SDS011;29803;51.048;4.686;2023-11-18T09:26:42;12.20;;;4.45;;
44139;SDS011;29803;51.048;4.686;2023-11-18T09:29:14;17.42;;;5.15;;
44139;SDS011;29803;51.048;4.686;2023-11-18T09:31:48;17.42;;;5.20;;
44139;SDS011;29803;51.048;4.686;2023-11-18T09:34:18;20.98;;;5.35;;
44139;SDS011;29803;51.048;4.686;2023-11-18T09:36:57;17.48;;;5.05;;
44139;SDS011;29803;51.048;4.686;2023-11-18T09:39:28;21.80;;;5.30;;
44139;SDS011;29803;51.048;4.686;2023-11-18T09:41:59;15.30;;;4.82;;
44139;SDS011;29803;51.048;4.686;2023-11-18T09:44:32;20.08;;;5.30;;
44139;SDS011;29803;51.048;4.686;2023-11-18T09:47:03;14.27;;;5.10;;
44139;SDS011;29803;51.048;4.686;2023-11-18T09:49:40;14.32;;;5.10;;
44139;SDS011;29803;51.048;4.686;2023-11-18T09:52:15;26.20;;;5.65;;
44139;SDS011;29803;51.048;4.686;2023-11-18T09:55:02;11.05;;;4.97;;
44139;SDS011;29803;51.048;4.686;2023-11-18T09:57:44;10.85;;;4.70;;
44139;SDS011;29803;51.048;4.686;2023-11-18T10:00:27;16.25;;;5.10;;
44139;SDS011;29803;51.048;4.686;2023-11-18T10:03:02;19.08;;;4.93;;
44139;SDS011;29803;51.048;4.686;2023-11-18T10:05:39;13.45;;;4.93;;
44139;SDS011;29803;51.048;4.686;2023-11-18T10:08:10;17.58;;;4.50;;
44139;SDS011;29803;51.048;4.686;2023-11-18T10:10:41;15.65;;;4.50;;
44139;SDS011;29803;51.048;4.686;2023-11-18T10:13:15;14.63;;;4.55;;
44139;SDS011;29803;51.048;4.686;2023-11-18T10:15:52;13.80;;;5.50;;
44139;SDS011;29803;51.048;4.686;2023-11-18T10:18:22;16.90;;;5.53;;
44139;SDS011;29803;51.048;4.686;2023-11-18T10:20:53;19.30;;;5.60;;
44139;SDS011;29803;51.048;4.686;2023-11-18T10:23:24;16.52;;;5.45;;
44139;SDS011;29803;51.048;4.686;2023-11-18T10:25:55;16.58;;;4.88;;
44139;SDS011;29803;51.048;4.686;2023-11-18T10:28:27;10.75;;;4.93;;
44139;SDS011;29803;51.048;4.686;2023-11-18T10:31:00;12.77;;;5.55;;
44139;SDS011;29803;51.048;4.686;2023-11-18T10:33:35;20.00;;;5.47;;
44139;SDS011;29803;51.048;4.686;2023-11-18T10:36:17;18.65;;;5.18;;
44139;SDS011;29803;51.048;4.686;2023-11-18T10:38:53;15.27;;;5.47;;
44139;SDS011;29803;51.048;4.686;2023-11-18T10:41:30;13.80;;;5.80;;
44139;SDS011;29803;51.048;4.686;2023-11-18T10:44:05;16.63;;;5.45;;
44139;SDS011;29803;51.048;4.686;2023-11-18T10:46:51;14.45;;;5.80;;
44139;SDS011;29803;51.048;4.686;2023-11-18T10:49:23;21.45;;;4.80;;
44139;SDS011;29803;51.048;4.686;2023-11-18T10:51:55;12.85;;;5.28;;
44139;SDS011;29803;51.048;4.686;2023-11-18T10:54:27;20.02;;;5.18;;
44139;SDS011;29803;51.048;4.686;2023-11-18T10:56:58;15.48;;;5.20;;
44139;SDS011;29803;51.048;4.686;2023-11-18T10:59:42;12.65;;;5.25;;
44139;SDS011;29803;51.048;4.686;2023-11-18T11:02:30;14.23;;;5.90;;
44139;SDS011;29803;51.048;4.686;2023-11-18T11:05:05;21.85;;;5.55;;
44139;SDS011;29803;51.048;4.686;2023-11-18T11:07:36;16.15;;;5.35;;
44139;SDS011;29803;51.048;4.686;2023-11-18T11:10:08;15.00;;;5.40;;
44139;SDS011;29803;51.048;4.686;2023-11-18T11:12:43;13.82;;;5.70;;
44139;SDS011;29803;51.048;4.686;2023-11-18T11:15:22;15.32;;;5.38;;
44139;SDS011;29803;51.048;4.686;2023-11-18T11:18:05;13.80;;;5.10;;
44139;SDS011;29803;51.048;4.686;2023-11-18T11:20:41;13.77;;;5.65;;
44139;SDS011;29803;51.048;4.686;2023-11-18T11:23:23;14.93;;;5.68;;
44139;SDS011;29803;51.048;4.686;2023-11-18T11:26:02;12.85;;;5.63;;
44139;SDS011;29803;51.048;4.686;2023-11-18T11:28:48;14.40;;;5.55;;
44139;SDS011;29803;51.048;4.686;2023-11-18T11:31:38;13.77;;;5.28;;
44139;SDS011;29803;51.048;4.686;2023-11-18T11:34:17;15.25;;;6.43;;
44139;SDS011;29803;51.048;4.686;2023-11-18T11:36:51;14.38;;;5.97;;
44139;SDS011;29803;51.048;4.686;2023-11-18T11:39:25;9.35;;;4.45;;
44139;SDS011;29803;51.048;4.686;2023-11-18T11:42:00;14.32;;;5.80;;
44139;SDS011;29803;51.048;4.686;2023-11-18T11:44:32;12.73;;;4.68;;
44139;SDS011;29803;51.048;4.686;2023-11-18T11:47:10;10.77;;;3.65;;
44139;SDS011;29803;51.048;4.686;2023-11-18T11:49:55;12.05;;;4.22;;
44139;SDS011;29803;51.048;4.686;2023-11-18T11:52:43;10.57;;;4.75;;
44139;SDS011;29803;51.048;4.686;2023-11-18T11:55:22;11.32;;;3.85;;
44139;SDS011;29803;51.048;4.686;2023-11-18T11:57:59;11.15;;;4.30;;
44139;SDS011;29803;51.048;4.686;2023-11-18T12:00:31;10.52;;;3.90;;
44139;SDS011;29803;51.048;4.686;2023-11-18T12:03:05;12.60;;;5.82;;
44139;SDS011;29803;51.048;4.686;2023-11-18T12:05:43;6.88;;;3.47;;
44139;SDS011;29803;51.048;4.686;2023-11-18T12:08:16;6.13;;;3.63;;
44139;SDS011;29803;51.048;4.686;2023-11-18T12:10:54;9.18;;;4.13;;
44139;SDS011;29803;51.048;4.686;2023-11-18T12:13:26;7.70;;;3.45;;
44139;SDS011;29803;51.048;4.686;2023-11-18T12:15:57;7.00;;;2.88;;
44139;SDS011;29803;51.048;4.686;2023-11-18T12:18:28;6.60;;;2.97;;
44139;SDS011;29803;51.048;4.686;2023-11-18T12:21:02;6.13;;;2.65;;
44139;SDS011;29803;51.048;4.686;2023-11-18T12:23:33;4.28;;;2.30;;
44139;SDS011;29803;51.048;4.686;2023-11-18T12:26:37;7.68;;;2.60;;
44139;SDS011;29803;51.048;4.686;2023-11-18T12:29:29;5.43;;;2.63;;
44139;SDS011;29803;51.048;4.686;2023-11-18T12:32:04;16.98;;;3.92;;
44139;SDS011;29803;51.048;4.686;2023-11-18T12:34:55;6.20;;;2.75;;
44139;SDS011;29803;51.048;4.686;2023-11-18T12:40:23;4.55;;;2.05;;
44139;SDS011;29803;51.048;4.686;2023-11-18T12:43:24;7.97;;;2.70;;
44139;SDS011;29803;51.048;4.686;2023-11-18T12:49:07;4.95;;;2.30;;
44139;SDS011;29803;51.048;4.686;2023-11-18T12:51:45;8.23;;;2.60;;
44139;SDS011;29803;51.048;4.686;2023-11-18T12:54:15;9.68;;;2.45;;
44139;SDS011;29803;51.048;4.686;2023-11-18T12:56:48;7.68;;;2.17;;
44139;SDS011;29803;51.048;4.686;2023-11-18T12:59:19;3.90;;;2.08;;
44139;SDS011;29803;51.048;4.686;2023-11-18T13:01:51;4.80;;;2.13;;
44139;SDS011;29803;51.048;4.686;2023-11-18T13:04:26;4.55;;;2.20;;
44139;SDS011;29803;51.048;4.686;2023-11-18T13:06:57;4.03;;;2.00;;
44139;SDS011;29803;51.048;4.686;2023-11-18T13:09:30;3.08;;;1.52;;
44139;SDS011;29803;51.048;4.686;2023-11-18T13:12:05;3.58;;;2.13;;
44139;SDS011;29803;51.048;4.686;2023-11-18T13:14:39;3.72;;;1.75;;
44139;SDS011;29803;51.048;4.686;2023-11-18T13:17:10;5.57;;;2.10;;
44139;SDS011;29803;51.048;4.686;2023-11-18T13:19:43;3.70;;;1.75;;
44139;SDS011;29803;51.048;4.686;2023-11-18T13:22:14;3.95;;;2.13;;
44139;SDS011;29803;51.048;4.686;2023-11-18T13:24:49;2.40;;;1.63;;
44139;SDS011;29803;51.048;4.686;2023-11-18T13:27:20;4.22;;;1.75;;
44139;SDS011;29803;51.048;4.686;2023-11-18T13:29:51;2.47;;;1.42;;
44139;SDS011;29803;51.048;4.686;2023-11-18T13:32:23;2.97;;;1.60;;
44139;SDS011;29803;51.048;4.686;2023-11-18T13:34:55;3.63;;;1.75;;
44139;SDS011;29803;51.048;4.686;2023-11-18T13:37:26;3.72;;;1.55;;
44139;SDS011;29803;51.048;4.686;2023-11-18T13:39:57;4.47;;;1.77;;
44139;SDS011;29803;51.048;4.686;2023-11-18T13:42:30;3.75;;;1.90;;
44139;SDS011;29803;51.048;4.686;2023-11-18T13:45:05;1.95;;;1.30;;
44139;SDS011;29803;51.048;4.686;2023-11-18T13:47:49;1.92;;;1.13;;
44139;SDS011;29803;51.048;4.686;2023-11-18T13:50:22;2.20;;;1.30;;
44139;SDS011;29803;51.048;4.686;2023-11-18T13:52:53;2.50;;;1.20;;
44139;SDS011;29803;51.048;4.686;2023-11-18T13:55:23;2.75;;;1.10;;
44139;SDS011;29803;51.048;4.686;2023-11-18T13:57:57;2.00;;;1.20;;
44139;SDS011;29803;51.048;4.686;2023-11-18T14:00:29;1.63;;;1.40;;
44139;SDS011;29803;51.048;4.686;2023-11-18T14:02:59;3.05;;;1.75;;
44139;SDS011;29803;51.048;4.686;2023-11-18T14:05:33;3.03;;;1.52;;
44139;SDS011;29803;51.048;4.686;2023-11-18T14:08:03;6.75;;;1.65;;
44139;SDS011;29803;51.048;4.686;2023-11-18T14:10:38;3.00;;;1.95;;
44139;SDS011;29803;51.048;4.686;2023-11-18T14:13:10;4.85;;;1.40;;
44139;SDS011;29803;51.048;4.686;2023-11-18T14:15:46;1.88;;;1.45;;
44139;SDS011;29803;51.048;4.686;2023-11-18T14:18:18;2.15;;;1.33;;
44139;SDS011;29803;51.048;4.686;2023-11-18T14:20:49;5.45;;;1.90;;
44139;SDS011;29803;51.048;4.686;2023-11-18T14:23:20;4.20;;;1.83;;
44139;SDS011;29803;51.048;4.686;2023-11-18T14:25:51;2.28;;;1.45;;
44139;SDS011;29803;51.048;4.686;2023-11-18T14:28:22;4.25;;;1.60;;
44139;SDS011;29803;51.048;4.686;2023-11-18T14:30:56;5.10;;;1.40;;
44139;SDS011;29803;51.048;4.686;2023-11-18T14:33:26;1.63;;;1.23;;
44139;SDS011;29803;51.048;4.686;2023-11-18T14:35:58;2.83;;;1.35;;
44139;SDS011;29803;51.048;4.686;2023-11-18T14:38:31;4.88;;;1.40;;
44139;SDS011;29803;51.048;4.686;2023-11-18T14:41:02;3.30;;;1.73;;
44139;SDS011;29803;51.048;4.686;2023-11-18T14:43:34;3.40;;;1.60;;
44139;SDS011;29803;51.048;4.686;2023-11-18T14:46:06;6.32;;;2.00;;
44139;SDS011;29803;51.048;4.686;2023-11-18T14:48:38;3.15;;;2.05;;
44139;SDS011;29803;51.048;4.686;2023-11-18T14:51:08;4.82;;;1.77;;
44139;SDS011;29803;51.048;4.686;2023-11-18T14:53:39;3.97;;;2.15;;
44139;SDS011;29803;51.048;4.686;2023-11-18T14:56:10;6.50;;;1.95;;
44139;SDS011;29803;51.048;4.686;2023-11-18T14:58:41;3.47;;;1.92;;
44139;SDS011;29803;51.048;4.686;2023-11-18T15:01:11;2.90;;;1.42;;
44139;SDS011;29803;51.048;4.686;2023-11-18T15:03:43;3.40;;;2.20;;
44139;SDS011;29803;51.048;4.686;2023-11-18T15:06:13;5.03;;;1.55;;
44139;SDS011;29803;51.048;4.686;2023-11-18T15:08:44;4.07;;;1.80;;
44139;SDS011;29803;51.048;4.686;2023-11-18T15:11:20;4.05;;;2.30;;
44139;SDS011;29803;51.048;4.686;2023-11-18T15:13:52;2.78;;;1.67;;
44139;SDS011;29803;51.048;4.686;2023-11-18T15:16:23;4.72;;;1.80;;
44139;SDS011;29803;51.048;4.686;2023-11-18T15:18:53;2.33;;;1.30;;